Time;durP1;ratioP1;P1;durP2;ratioP2;P2;SDS_P1;SDS_P2;PMS_P1;PMS_P2;Temp;Humidity;BMP_temperature;BMP_pressure;BME280_temperature;BME280_humidity;BME280_pressure;Samples;Min_cycle;Max_cycle;Signal;HPM_P1;HPM_P2
2021/11/21 00:00:58;;;;;;;9.65;7.28;;;13.30;99.90;;;13.54;74.69;101353.97;5055234;28;20145;-70
2021/11/21 00:03:27;;;;;;;9.85;6.82;;;13.40;99.90;;;13.62;74.64;101362.78;5055371;28;20044;-70
2021/11/21 00:05:56;;;;;;;12.10;6.93;;;13.40;99.90;;;13.58;74.57;101350.41;5055036;28;20048;-71
2021/11/21 00:08:24;;;;;;;10.73;6.47;;;13.40;99.90;;;13.62;74.49;101365.44;5053935;28;20048;-68
2021/11/21 00:10:53;;;;;;;11.75;7.07;;;13.30;99.90;;;13.49;74.51;101324.78;5054954;28;20087;-66
2021/11/21 00:13:24;;;;;;;10.45;6.68;;;13.40;99.90;;;13.29;74.15;101284.22;5054925;28;20067;-69
2021/11/21 00:15:52;;;;;;;9.80;6.47;;;13.40;99.90;;;13.64;74.33;101328.19;5055134;28;20388;-69
2021/11/21 00:18:21;;;;;;;9.43;6.47;;;13.50;99.90;;;13.30;74.14;101264.72;5053893;28;20041;-70
2021/11/21 00:20:50;;;;;;;10.15;6.38;;;13.50;99.90;;;13.82;74.07;101344.84;5055071;28;20044;-69
2021/11/21 00:23:21;;;;;;;10.55;6.30;;;13.60;99.90;;;13.64;74.21;101329.09;5055001;28;20048;-68
2021/11/21 00:25:49;;;;;;;;;;;13.50;99.90;;;13.79;74.44;101339.56;5055474;28;20037;-66
2021/11/21 00:28:18;;;;;;;10.55;6.00;;;13.60;99.90;;;13.81;74.33;101336.88;5054603;28;19975;-68
2021/11/21 00:30:47;;;;;;;9.50;5.40;;;13.50;99.90;;;13.82;74.27;101336.84;5054633;28;20036;-68
2021/11/21 00:33:16;;;;;;;12.40;6.50;;;13.50;99.90;;;13.68;74.37;101319.28;5054893;28;20045;-69
2021/11/21 00:35:44;;;;;;;12.23;5.55;;;13.50;99.90;;;13.74;74.58;101333.44;5053520;28;20120;-69
2021/11/21 00:38:14;;;;;;;10.82;6.20;;;13.50;99.90;;;13.69;75.05;101348.53;5054486;28;20110;-69
2021/11/21 00:40:42;;;;;;;9.73;6.13;;;13.40;99.90;;;13.61;75.05;101306.97;5054248;28;20497;-69
2021/11/21 00:43:11;;;;;;;8.85;5.90;;;13.40;99.90;;;13.78;75.38;101331.59;5054220;28;20045;-68
2021/11/21 00:45:39;;;;;;;10.07;6.25;;;13.50;99.90;;;13.77;75.50;101325.41;5069923;28;20136;-69
2021/11/21 00:48:09;;;;;;;7.90;5.50;;;13.50;99.90;;;13.75;75.78;101318.31;5054288;28;20084;-68
2021/11/21 00:50:38;;;;;;;11.35;6.18;;;13.50;99.90;;;13.86;76.20;101329.75;5054196;28;20067;-68
2021/11/21 00:53:08;;;;;;;10.95;5.65;;;13.60;99.90;;;13.84;76.46;101321.78;5054394;28;20077;-68
2021/11/21 00:55:39;;;;;;;13.98;6.00;;;13.60;99.90;;;13.71;77.02;101322.81;5054464;28;20045;-68
2021/11/21 00:58:11;;;;;;;11.50;5.85;;;13.40;99.90;;;13.31;78.03;101294.84;5053165;28;20513;-68
2021/11/21 01:00:42;;;;;;;14.48;6.03;;;13.20;99.90;;;13.52;78.67;101314.13;5054085;28;20041;-67
2021/11/21 01:03:14;;;;;;;11.52;6.65;;;13.30;99.90;;;13.30;80.10;101309.00;5053959;28;20486;-68
2021/11/21 01:05:43;;;;;;;14.65;6.80;;;13.10;99.90;;;13.19;81.26;101309.09;5069644;28;20148;-67
2021/11/21 01:08:12;;;;;;;14.10;7.40;;;13.00;99.90;;;13.15;81.81;101301.16;5053806;28;20040;-67
2021/11/21 01:10:42;;;;;;;17.63;7.05;;;12.90;99.90;;;13.01;82.84;101298.59;5053797;28;20056;-67
2021/11/21 01:13:12;;;;;;;12.77;6.78;;;12.80;99.90;;;13.06;82.95;101296.81;5054409;28;20041;-68
2021/11/21 01:15:41;;;;;;;12.37;7.10;;;12.80;99.90;;;13.02;83.33;101289.75;5053835;28;20464;-68
2021/11/21 01:18:12;;;;;;;13.70;6.70;;;12.80;99.90;;;12.96;83.71;101283.59;5053687;28;20048;-68
2021/11/21 01:20:41;;;;;;;16.42;7.50;;;12.80;99.90;;;12.63;85.16;101280.28;5053731;28;20049;-68
2021/11/21 01:23:12;;;;;;;19.70;7.25;;;12.50;99.90;;;12.58;85.66;101255.53;5053618;28;20033;-68
2021/11/21 01:25:40;;;;;;;13.40;7.25;;;12.50;99.90;;;12.53;86.97;101282.97;5054213;28;20037;-67
2021/11/21 01:28:09;;;;;;;13.93;7.15;;;12.40;99.90;;;12.69;87.03;101292.63;5053454;28;20072;-68
2021/11/21 01:30:38;;;;;;;15.00;7.55;;;12.40;99.90;;;12.29;87.33;101230.06;5053423;28;20033;-67
2021/11/21 01:33:07;;;;;;;11.68;7.18;;;12.40;99.90;;;12.56;87.82;101280.31;5053475;28;20041;-67
2021/11/21 01:35:37;;;;;;;13.80;7.15;;;12.30;99.90;;;12.61;88.29;101271.44;5053445;28;20118;-68
2021/11/21 01:38:06;;;;;;;11.02;7.03;;;12.40;99.90;;;12.56;89.04;101286.50;5053649;28;20049;-66
2021/11/21 01:40:36;;;;;;;14.77;7.25;;;12.40;99.90;;;12.59;89.50;101282.94;5053326;28;20064;-67
2021/11/21 01:43:06;;;;;;;15.93;7.55;;;12.30;99.90;;;12.68;89.38;101278.47;5051991;28;20049;-67
2021/11/21 01:45:35;;;;;;;;;;;12.40;99.90;;;12.56;90.21;101273.22;5054017;28;20048;-67
2021/11/21 01:48:04;;;;;;;15.18;7.63;;;12.40;99.90;;;12.44;90.84;101278.63;5053203;28;19963;-67
2021/11/21 01:50:37;;;;;;;15.75;7.93;;;12.30;99.90;;;12.41;91.68;101267.13;5053476;28;20045;-67
2021/11/21 01:53:06;;;;;;;12.38;7.60;;;12.20;99.90;;;12.54;91.89;101268.84;5052898;28;20045;-67
2021/11/21 01:55:39;;;;;;;12.02;7.75;;;12.30;99.90;;;12.39;91.53;101226.47;5052139;28;20045;-66
2021/11/21 01:58:08;;;;;;;13.40;7.10;;;12.30;99.90;;;12.68;91.54;101269.63;5068883;28;20049;-67
2021/11/21 02:00:40;;;;;;;13.30;8.40;;;12.40;99.90;;;12.57;91.17;101236.97;5053126;28;20047;-66
2021/11/21 02:03:09;;;;;;;10.55;7.00;;;12.40;99.90;;;12.85;90.93;101254.47;5053107;28;20275;-67
2021/11/21 02:05:39;;;;;;;12.85;7.55;;;12.60;99.90;;;12.59;90.41;101211.28;5052949;28;20118;-67
2021/11/21 02:08:09;;;;;;;14.23;8.03;;;12.60;99.90;;;12.94;90.08;101261.47;5052925;28;20041;-67
2021/11/21 02:10:39;;;;;;;13.35;8.57;;;12.70;99.90;;;12.85;90.63;101256.25;5053321;28;20037;-67
2021/11/21 02:13:10;;;;;;;12.30;8.00;;;12.60;99.90;;;12.22;90.78;101188.53;5052826;28;20135;-67
2021/11/21 02:15:43;;;;;;;10.32;8.40;;;12.60;99.90;;;12.82;90.76;101248.28;5068662;28;20501;-67
2021/11/21 02:18:13;;;;;;;10.48;8.23;;;12.60;99.90;;;11.78;91.18;101053.63;5053458;28;20437;-67
2021/11/21 02:20:49;;;;;;;10.07;7.85;;;12.60;99.90;;;12.92;91.33;101244.66;5053211;28;20444;-66
2021/11/21 02:23:18;;;;;;;14.43;9.05;;;12.60;99.90;;;12.76;91.33;101227.97;5053173;28;20053;-66
2021/11/21 02:25:47;;;;;;;13.55;9.15;;;12.70;99.90;;;12.90;91.68;101235.84;5052809;28;20127;-67
2021/11/21 02:28:15;;;;;;;11.95;8.68;;;12.60;99.90;;;12.60;91.82;101199.81;5052964;28;20112;-67
2021/11/21 02:30:45;;;;;;;12.05;9.15;;;12.60;99.90;;;12.89;92.17;101224.31;5052764;28;20045;-66
2021/11/21 02:33:17;;;;;;;14.00;9.18;;;12.60;99.90;;;12.87;91.75;101196.03;5068513;28;20056;-67
2021/11/21 02:35:51;;;;;;;11.80;9.35;;;12.70;99.90;;;12.90;91.84;101215.47;5051753;28;20137;-67
2021/11/21 02:38:22;;;;;;;13.05;9.75;;;12.70;99.90;;;12.36;91.74;101104.47;5052947;28;20048;-68
2021/11/21 02:40:52;;;;;;;11.80;9.20;;;12.70;99.90;;;12.93;91.83;101210.13;5053346;28;20494;-68
2021/11/21 02:43:22;;;;;;;10.00;8.63;;;12.70;99.90;;;12.94;91.93;101206.59;5052624;28;20049;-68
2021/11/21 02:45:53;;;;;;;8.70;6.65;;;12.80;99.90;;;12.89;92.55;101203.09;5068366;28;20052;-68
2021/11/21 02:48:26;;;;;;;9.55;7.03;;;12.60;99.90;;;12.65;92.85;101182.06;5052756;28;20045;-67
2021/11/21 02:50:58;;;;;;;7.20;5.65;;;12.60;99.90;;;12.76;93.57;101190.81;5068332;28;20490;-68
2021/11/21 02:53:30;;;;;;;6.85;5.75;;;12.50;99.90;;;12.86;93.82;101196.91;5052585;28;20045;-67
2021/11/21 02:56:03;;;;;;;9.93;6.53;;;12.50;99.90;;;12.76;93.75;101180.19;5052879;28;20052;-67
2021/11/21 02:58:33;;;;;;;10.82;6.90;;;12.50;99.90;;;12.90;93.67;101188.03;5052587;28;20091;-67
2021/11/21 03:01:04;;;;;;;;;;;12.60;99.90;;;12.90;93.38;101178.31;5052899;28;20502;-67
2021/11/21 03:03:32;;;;;;;13.07;7.10;;;12.70;99.90;;;12.92;93.52;101181.84;5052557;28;19923;-67
2021/11/21 03:06:02;;;;;;;9.52;6.50;;;12.70;99.90;;;12.93;92.79;101156.16;5055160;28;20064;-67
2021/11/21 03:08:31;;;;;;;14.07;7.07;;;12.80;99.90;;;12.88;93.08;101180.09;5055150;28;20438;-67
2021/11/21 03:11:11;;;;;;;10.00;6.25;;;12.70;99.90;;;12.67;93.64;101137.81;5056162;28;20037;-67
2021/11/21 03:13:39;;;;;;;8.63;6.32;;;12.60;99.90;;;12.94;93.56;101180.03;5056191;28;20040;-67
2021/11/21 03:16:08;;;;;;;9.15;5.82;;;12.60;99.90;;;12.96;93.37;101172.06;5056032;28;20091;-67
2021/11/21 03:18:36;;;;;;;8.85;5.00;;;12.70;99.90;;;12.70;93.31;101151.03;5055932;28;20095;-67
2021/11/21 03:21:06;;;;;;;8.68;5.25;;;12.50;99.90;;;12.70;93.66;101159.91;5056187;28;20116;-68
2021/11/21 03:23:35;;;;;;;9.43;4.90;;;12.40;99.90;;;12.67;93.87;101153.75;5056442;28;20059;-67
2021/11/21 03:26:03;;;;;;;10.57;5.30;;;12.40;99.90;;;12.67;93.57;101157.28;5071455;28;20075;-67
2021/11/21 03:28:33;;;;;;;14.90;6.18;;;12.40;99.90;;;12.66;93.60;101167.88;5054850;28;20045;-67
2021/11/21 03:31:02;;;;;;;11.75;4.97;;;12.40;99.90;;;12.55;93.89;101143.22;5071422;28;20124;-67
2021/11/21 03:33:32;;;;;;;10.32;5.55;;;12.40;99.90;;;12.51;94.16;101163.59;5055733;28;20553;-67
2021/11/21 03:36:01;;;;;;;14.60;5.18;;;12.30;99.90;;;12.38;94.38;101159.28;5055801;28;20045;-67
2021/11/21 03:38:31;;;;;;;10.27;5.30;;;12.30;99.90;;;12.46;94.69;101172.50;5055960;28;20091;-67
2021/11/21 03:40:59;;;;;;;9.10;4.43;;;12.20;99.90;;;12.64;94.16;101170.56;5055633;28;20044;-68
2021/11/21 03:43:28;;;;;;;13.05;4.68;;;12.30;99.90;;;12.70;93.94;101175.81;5055844;28;20106;-68
2021/11/21 03:45:56;;;;;;;12.20;5.65;;;12.40;99.90;;;12.98;93.40;101175.59;5055476;28;20394;-68
2021/11/21 03:48:25;;;;;;;10.55;4.80;;;12.60;99.90;;;12.93;92.54;101172.09;5055182;28;20053;-68
2021/11/21 03:50:54;;;;;;;9.88;4.05;;;12.70;99.90;;;13.00;92.12;101174.69;5055556;28;20045;-68
2021/11/21 03:53:22;;;;;;;7.15;3.60;;;12.70;99.90;;;13.07;91.30;101171.09;5055352;28;20041;-68
2021/11/21 03:55:52;;;;;;;7.85;3.60;;;12.80;99.90;;;13.03;90.88;101172.00;5055284;28;20098;-68
2021/11/21 03:58:20;;;;;;;6.97;3.58;;;12.80;99.90;;;13.00;90.00;101177.34;5055220;28;20479;-68
2021/11/21 04:00:49;;;;;;;10.70;3.95;;;12.80;99.90;;;13.06;89.81;101176.44;5055155;28;20095;-68
2021/11/21 04:03:19;;;;;;;7.25;3.33;;;12.80;99.90;;;12.98;89.30;101168.50;5055148;28;20439;-67
2021/11/21 04:05:48;;;;;;;8.10;3.78;;;12.80;99.90;;;13.13;89.15;101180.78;5055474;28;20449;-67
2021/11/21 04:08:17;;;;;;;7.45;3.25;;;12.90;99.90;;;13.20;88.41;101175.38;5055025;28;20075;-67
2021/11/21 04:10:46;;;;;;;10.30;4.25;;;13.00;99.90;;;13.19;87.87;101173.63;5055165;28;20045;-68
2021/11/21 04:13:16;;;;;;;5.65;3.55;;;12.90;99.90;;;13.20;87.76;101188.66;5054980;28;20072;-67
2021/11/21 04:15:44;;;;;;;6.97;3.45;;;12.90;99.90;;;13.24;87.65;101182.44;5054820;28;20045;-67
2021/11/21 04:18:13;;;;;;;5.93;3.33;;;13.00;99.90;;;12.19;87.23;101018.84;5054290;28;20091;-67
2021/11/21 04:20:41;;;;;;;9.00;3.67;;;12.90;99.90;;;13.28;86.86;101173.53;5054751;28;20518;-67
2021/11/21 04:23:10;;;;;;;12.25;4.47;;;13.00;99.90;;;13.16;87.01;101175.44;5055074;28;20394;-67
2021/11/21 04:25:39;;;;;;;11.57;4.25;;;13.00;99.90;;;13.26;86.76;101180.63;5055038;28;20085;-68
2021/11/21 04:28:09;;;;;;;7.95;3.40;;;13.00;99.90;;;13.21;86.58;101152.38;5054959;28;20095;-67
2021/11/21 04:30:39;;;;;;;11.85;3.75;;;13.10;99.90;;;13.05;86.24;101180.84;5054591;28;20045;-67
2021/11/21 04:33:07;;;;;;;9.77;3.50;;;12.90;99.90;;;13.09;86.70;101168.41;5054688;28;20087;-67
2021/11/21 04:35:36;;;;;;;10.65;3.83;;;12.90;99.90;;;13.26;86.58;101174.44;5054500;28;20052;-67
2021/11/21 04:38:04;;;;;;;10.20;4.05;;;13.00;99.90;;;13.24;85.78;101168.28;5054781;28;20516;-67
2021/11/21 04:40:33;;;;;;;11.02;3.90;;;13.00;99.90;;;13.32;85.89;101177.03;5054456;28;20120;-68
2021/11/21 04:43:02;;;;;;;16.13;4.47;;;13.00;99.90;;;13.24;85.23;101174.44;5054408;28;20045;-68
2021/11/21 04:45:30;;;;;;;11.65;3.97;;;13.00;99.90;;;13.27;85.06;101178.88;5054311;28;20033;-68
2021/11/21 04:48:03;;;;;;;8.68;3.75;;;13.00;99.90;;;13.36;84.66;101184.97;5054315;28;20053;-68
2021/11/21 04:50:31;;;;;;;10.10;3.95;;;13.10;99.90;;;13.34;84.62;101175.22;5054253;28;20095;-68
2021/11/21 04:52:59;;;;;;;11.38;4.32;;;13.10;99.90;;;13.30;84.51;101162.88;5054540;28;20073;-68
2021/11/21 04:55:29;;;;;;;14.00;4.32;;;13.10;99.90;;;13.39;84.54;101174.28;5053174;28;20442;-68
2021/11/21 04:57:57;;;;;;;12.70;3.97;;;13.10;99.90;;;13.38;84.09;101167.22;5054071;28;20542;-68
2021/11/21 05:00:28;;;;;;;8.60;3.53;;;13.10;99.90;;;13.34;84.12;101170.81;5069631;28;20052;-68
2021/11/21 05:02:56;;;;;;;;;;;13.00;99.90;;;13.20;84.12;101170.06;5054513;28;20091;-68
2021/11/21 05:05:27;;;;;;;8.48;3.45;;;13.00;99.90;;;13.35;83.57;101182.31;5053923;28;19920;-68
2021/11/21 05:07:56;;;;;;;12.88;4.03;;;13.00;99.90;;;13.24;82.72;101147.88;5053943;28;20087;-68
2021/11/21 05:10:25;;;;;;;10.07;4.03;;;13.10;99.90;;;13.30;82.75;101169.09;5053821;28;20068;-68
2021/11/21 05:12:53;;;;;;;11.30;4.22;;;13.10;99.90;;;13.33;82.41;101169.06;5053818;28;20052;-68
2021/11/21 05:15:24;;;;;;;13.70;4.43;;;13.10;99.90;;;13.26;82.02;101150.53;5053767;28;20056;-68
2021/11/21 05:17:53;;;;;;;14.48;4.07;;;13.10;99.90;;;13.41;81.90;101168.97;5053848;28;20094;-68
2021/11/21 05:20:22;;;;;;;11.18;4.10;;;13.20;99.90;;;13.36;81.45;101174.34;5052703;28;20049;-68
2021/11/21 05:22:52;;;;;;;12.90;3.78;;;13.10;99.90;;;13.30;80.76;101160.22;5054207;28;20099;-68
2021/11/21 05:25:20;;;;;;;13.33;4.20;;;13.00;99.90;;;13.36;80.61;101174.34;5053684;28;20099;-68
2021/11/21 05:27:49;;;;;;;13.98;4.40;;;13.10;99.90;;;13.15;79.41;101136.50;5069228;28;20463;-68
2021/11/21 05:30:21;;;;;;;14.60;4.10;;;13.10;99.90;;;13.23;79.09;101164.75;5053452;28;20516;-68
2021/11/21 05:32:50;;;;;;;13.68;4.88;;;13.00;99.90;;;13.18;78.93;101155.91;5054098;28;20052;-68
2021/11/21 05:35:20;;;;;;;11.98;4.38;;;13.00;99.90;;;13.27;78.44;101169.13;5053427;28;20045;-68
2021/11/21 05:37:51;;;;;;;16.98;4.80;;;13.00;99.90;;;13.26;77.14;101163.81;5053950;28;20129;-68
2021/11/21 05:40:20;;;;;;;17.13;4.53;;;13.00;99.90;;;13.26;76.19;101170.00;5053449;28;20045;-68
2021/11/21 05:42:49;;;;;;;19.92;4.80;;;13.00;99.90;;;13.19;75.83;101160.34;5053575;28;20452;-68
2021/11/21 05:45:18;;;;;;;12.02;4.82;;;13.00;99.90;;;13.12;75.61;101163.97;5053266;28;20037;-68
2021/11/21 05:47:46;;;;;;;14.00;4.70;;;12.90;99.90;;;13.26;75.51;101166.47;5053602;28;20045;-68
2021/11/21 05:50:16;;;;;;;17.63;4.97;;;13.00;99.90;;;13.14;75.34;101161.31;5053408;28;20053;-68
2021/11/21 05:52:48;;;;;;;15.05;5.13;;;12.90;99.90;;;13.20;74.91;101161.25;5053182;28;20042;-68
2021/11/21 05:55:19;;;;;;;12.18;3.92;;;12.90;99.90;;;13.24;74.53;101157.66;5053452;28;20049;-68
2021/11/21 05:57:50;;;;;;;13.70;4.30;;;13.00;99.90;;;13.16;74.32;101160.38;5053195;28;20490;-68
2021/11/21 06:00:21;;;;;;;12.65;4.55;;;12.90;99.90;;;13.20;73.88;101162.09;5053146;28;20037;-65
2021/11/21 06:02:51;;;;;;;13.85;4.95;;;12.90;99.90;;;13.04;74.44;101155.19;5053349;28;20107;-65
2021/11/21 06:05:20;;;;;;;11.80;4.45;;;12.80;99.90;;;12.83;74.72;101123.53;5052989;28;20098;-65
2021/11/21 06:07:49;;;;;;;14.40;4.43;;;12.80;99.90;;;13.01;74.48;101143.66;5053037;28;20045;-68
2021/11/21 06:10:21;;;;;;;14.48;4.32;;;12.80;99.90;;;13.14;74.67;101164.81;5053200;28;20052;-68
2021/11/21 06:12:50;;;;;;;14.18;4.28;;;12.90;99.90;;;13.15;74.36;101168.34;5053080;28;20444;-68
2021/11/21 06:15:18;;;;;;;14.88;4.50;;;12.90;99.90;;;13.26;73.81;101162.03;5053175;28;20445;-68
2021/11/21 06:17:47;;;;;;;11.90;3.65;;;12.90;99.90;;;13.20;73.71;101172.72;5068625;28;20453;-68
2021/11/21 06:20:15;;;;;;;12.32;4.00;;;12.90;99.90;;;13.13;72.42;101164.84;5053461;28;20060;-68
2021/11/21 06:22:44;;;;;;;13.45;4.13;;;12.90;99.90;;;12.82;72.86;101180.16;5053184;28;20091;-68
2021/11/21 06:25:13;;;;;;;10.23;4.40;;;12.70;99.90;;;12.44;73.68;101159.25;5052799;28;20471;-68
2021/11/21 06:27:43;;;;;;;13.90;4.60;;;12.50;99.90;;;12.55;73.67;101185.66;5052765;28;20045;-68
2021/11/21 06:30:14;;;;;;;11.57;3.75;;;12.40;99.90;;;12.54;73.36;101179.47;5052825;28;20071;-68
2021/11/21 06:32:43;;;;;;;10.57;4.00;;;12.40;99.90;;;12.45;73.93;101179.56;5052817;28;20052;-68
2021/11/21 06:35:12;;;;;;;10.05;3.40;;;12.30;99.90;;;12.43;74.75;101173.38;5051411;28;20080;-68
2021/11/21 06:37:41;;;;;;;10.35;3.75;;;12.20;99.90;;;12.32;75.07;101167.28;5053020;28;20043;-68
2021/11/21 06:40:10;;;;;;;19.50;4.60;;;12.20;99.90;;;12.36;75.46;101170.78;5054469;28;20037;-68
2021/11/21 06:42:41;;;;;;;10.35;3.65;;;12.20;99.90;;;11.73;75.40;101055.41;5056649;28;20402;-68
2021/11/21 06:45:11;;;;;;;12.07;4.03;;;12.20;99.90;;;12.39;75.74;101163.69;5056891;28;20453;-68
2021/11/21 06:47:40;;;;;;;15.07;4.45;;;12.20;99.90;;;12.42;75.56;101163.69;5056635;28;20079;-68
2021/11/21 06:50:12;;;;;;;10.40;4.40;;;12.20;99.90;;;12.43;75.37;101162.75;5056475;28;20056;-68
2021/11/21 06:52:43;;;;;;;14.68;4.30;;;12.20;99.90;;;12.40;74.99;101148.66;5056476;28;20045;-68
2021/11/21 06:55:14;;;;;;;12.65;4.28;;;12.30;99.90;;;12.58;74.66;101169.75;5056805;28;20041;-68
2021/11/21 06:57:42;;;;;;;15.48;4.43;;;12.40;99.90;;;11.76;75.07;101036.84;5056462;28;20045;-68
2021/11/21 07:00:16;;;;;;;8.93;3.80;;;12.30;99.90;;;12.60;74.66;101165.31;5056384;28;20073;-68
2021/11/21 07:02:45;;;;;;;13.55;4.20;;;12.40;99.90;;;12.58;74.64;101169.75;5056635;28;20049;-68
2021/11/21 07:05:14;;;;;;;15.95;4.38;;;12.40;99.90;;;12.58;74.33;101185.66;5056264;28;20045;-68
2021/11/21 07:07:43;;;;;;;12.80;4.60;;;12.40;99.90;;;11.97;74.19;101078.22;5056825;28;20041;-68
2021/11/21 07:10:13;;;;;;;14.98;4.40;;;12.30;99.90;;;12.22;74.98;101188.53;5056207;28;20091;-68
2021/11/21 07:12:41;;;;;;;8.23;3.63;;;12.10;99.90;;;12.40;74.58;101194.63;5056270;28;20044;-68
2021/11/21 07:15:16;;;;;;;11.57;4.00;;;12.10;99.90;;;12.19;73.81;101202.72;5055153;28;20049;-68
2021/11/21 07:17:49;;;;;;;20.95;4.80;;;12.10;99.90;;;12.33;73.93;101197.34;5056092;28;20402;-68
2021/11/21 07:20:17;;;;;;;11.20;4.32;;;12.10;99.90;;;12.29;72.69;101201.75;5056105;28;20099;-68
2021/11/21 07:22:49;;;;;;;14.05;4.30;;;12.10;99.90;;;12.31;72.09;101205.28;5055921;28;20127;-68
2021/11/21 07:25:20;;;;;;;10.05;4.97;;;12.10;99.90;;;12.40;71.69;101205.25;5055953;28;20041;-68
2021/11/21 07:27:49;;;;;;;19.13;5.35;;;12.20;99.90;;;12.23;71.63;101211.53;5055839;28;20041;-68
2021/11/21 07:30:22;;;;;;;11.23;4.60;;;12.10;99.90;;;12.18;70.61;101184.16;5056248;28;20041;-68
2021/11/21 07:32:53;;;;;;;11.88;4.57;;;12.20;99.90;;;12.27;70.66;101210.63;5055987;28;20429;-68
2021/11/21 07:35:24;;;;;;;13.00;4.70;;;12.10;99.90;;;12.28;70.54;101210.63;5056276;28;20501;-68
2021/11/21 07:37:52;;;;;;;;;;;12.10;99.90;;;12.01;70.35;101191.31;5071793;28;20095;-68
2021/11/21 07:40:21;;;;;;;14.57;4.30;;;12.10;99.90;;;11.83;71.46;101220.59;5055868;28;19921;-68
2021/11/21 07:42:54;;;;;;;14.35;4.90;;;11.80;99.90;;;11.92;71.34;101217.88;5071198;28;20045;-68
2021/11/21 07:45:25;;;;;;;15.15;4.80;;;11.80;99.90;;;11.78;71.84;101200.28;5055524;28;20044;-68
2021/11/21 07:47:53;;;;;;;16.13;4.95;;;11.80;99.90;;;11.93;71.98;101224.94;5055178;28;20068;-68
2021/11/21 07:50:22;;;;;;;13.25;5.18;;;11.70;99.90;;;11.92;72.01;101205.53;5055395;28;20045;-68
2021/11/21 07:52:51;;;;;;;15.48;4.65;;;11.90;99.90;;;12.03;71.86;101210.75;5054259;28;20455;-68
2021/11/21 07:55:19;;;;;;;18.30;4.47;;;11.90;99.90;;;12.02;71.26;101219.63;5055321;28;20037;-68
2021/11/21 07:57:48;;;;;;;15.57;4.78;;;12.00;99.90;;;12.04;71.21;101229.28;5055280;28;20075;-68
2021/11/21 08:00:17;;;;;;;12.48;4.97;;;11.90;99.90;;;12.13;70.10;101223.09;5054176;28;20490;-68
2021/11/21 08:02:47;;;;;;;14.95;4.97;;;11.90;99.90;;;12.19;70.38;101255.78;5055712;28;20056;-68
2021/11/21 08:05:17;;;;;;;14.77;4.85;;;12.00;99.90;;;11.98;69.59;101228.47;5070795;28;20137;-68
2021/11/21 08:07:45;;;;;;;15.02;4.75;;;12.00;99.90;;;12.31;69.47;101228.31;5054945;28;20037;-68
2021/11/21 08:10:14;;;;;;;12.20;4.15;;;12.10;99.90;;;12.32;68.56;101233.59;5054958;28;20045;-68
2021/11/21 08:12:42;;;;;;;13.85;4.03;;;12.10;99.90;;;12.43;68.12;101228.19;5053893;28;20411;-68
2021/11/21 08:15:12;;;;;;;10.57;4.40;;;12.20;99.90;;;12.30;67.55;101207.97;5055287;28;20044;-68
2021/11/21 08:17:41;;;;;;;13.30;4.60;;;12.20;99.90;;;12.46;68.53;101233.50;5054961;28;20471;-68
2021/11/21 08:20:12;;;;;;;14.43;4.90;;;12.30;99.90;;;10.68;67.81;100917.38;5055120;28;20120;-68
2021/11/21 08:22:41;;;;;;;12.02;3.97;;;12.30;99.90;;;12.59;67.52;101238.72;5054764;28;20083;-68
2021/11/21 08:25:10;;;;;;;14.95;4.82;;;12.40;99.90;;;12.39;67.48;101190.19;5054456;28;20060;-68
2021/11/21 08:27:40;;;;;;;24.83;4.83;;;12.40;99.90;;;12.74;67.07;101237.72;5054869;28;20045;-68
2021/11/21 08:30:11;;;;;;;17.45;4.47;;;12.50;99.90;;;12.74;67.04;101245.69;5054524;28;20288;-69
2021/11/21 08:32:39;;;;;;;16.25;5.00;;;12.50;99.90;;;12.76;66.31;101238.59;5070301;28;20053;-68
2021/11/21 08:35:08;;;;;;;12.38;4.40;;;12.50;99.90;;;12.79;66.34;101237.69;5054405;28;20379;-68
2021/11/21 08:37:38;;;;;;;13.48;4.88;;;12.50;99.90;;;12.88;66.38;101243.81;5054659;28;20091;-68
2021/11/21 08:40:08;;;;;;;15.85;4.32;;;12.60;99.90;;;12.86;65.67;101244.72;5054320;28;20045;-68
2021/11/21 08:42:37;;;;;;;12.68;4.30;;;12.60;99.90;;;12.16;65.37;101143.50;5054704;28;20048;-68
2021/11/21 08:45:08;;;;;;;15.40;5.07;;;12.50;99.90;;;12.79;65.89;101235.94;5054364;28;20049;-71
2021/11/21 08:47:37;;;;;;;17.75;5.25;;;12.50;99.90;;;12.73;64.88;101213.84;5054251;28;20068;-68
2021/11/21 08:50:07;;;;;;;12.93;4.28;;;12.60;99.90;;;12.81;64.50;101243.88;5054232;28;20065;-68
2021/11/21 08:52:38;;;;;;;19.27;5.18;;;12.50;99.90;;;12.97;63.98;101234.91;5054708;28;20110;-68
2021/11/21 08:55:08;;;;;;;11.52;4.60;;;12.60;99.90;;;13.03;64.76;101242.78;5054126;28;20379;-68
2021/11/21 08:57:36;;;;;;;15.23;5.40;;;12.70;99.90;;;12.98;64.93;101242.84;5054380;28;20041;-68
2021/11/21 09:00:08;;;;;;;15.13;5.30;;;12.70;99.90;;;12.54;64.15;101160.03;5054325;28;20049;-68
2021/11/21 09:02:38;;;;;;;15.90;4.82;;;12.70;99.90;;;13.09;63.98;101248.97;5053918;28;20429;-68
2021/11/21 09:05:09;;;;;;;19.92;4.95;;;12.80;99.90;;;13.00;63.55;101249.03;5054206;28;20090;-69
2021/11/21 09:07:42;;;;;;;18.55;5.30;;;12.80;99.90;;;13.11;63.78;101248.97;5053945;28;20497;-69
2021/11/21 09:10:15;;;;;;;14.68;5.05;;;12.90;99.90;;;12.82;63.18;101211.13;5053632;28;20037;-65
2021/11/21 09:12:44;;;;;;;13.38;4.55;;;12.80;99.90;;;13.13;62.81;101253.38;5053701;28;20085;-66
2021/11/21 09:15:16;;;;;;;14.93;4.93;;;12.90;99.90;;;13.23;62.70;101252.41;5053710;28;20049;-65
2021/11/21 09:17:47;;;;;;;16.90;4.55;;;13.00;99.90;;;13.18;63.46;101259.50;5053988;28;20041;-66
2021/11/21 09:20:15;;;;;;;14.75;5.22;;;12.90;99.90;;;13.31;62.92;101255.88;5053682;28;20037;-65
2021/11/21 09:22:45;;;;;;;16.55;4.38;;;13.10;99.90;;;13.48;63.00;101250.38;5053762;28;20045;-69
2021/11/21 09:25:13;;;;;;;13.63;4.60;;;13.20;99.90;;;13.51;62.81;101255.69;5053841;28;20086;-66
2021/11/21 09:27:42;;;;;;;12.50;4.40;;;13.30;99.90;;;13.64;62.13;101251.09;5052679;28;20041;-67
2021/11/21 09:30:12;;;;;;;11.68;4.82;;;13.40;99.90;;;13.40;61.98;101239.84;5053446;28;20045;-66
2021/11/21 09:32:40;;;;;;;11.80;4.60;;;13.30;99.90;;;13.23;61.67;101259.47;5068970;28;20067;-67
2021/11/21 09:35:10;;;;;;;17.30;4.78;;;13.20;99.90;;;13.36;62.26;101261.13;5053356;28;20044;-67
2021/11/21 09:37:39;;;;;;;15.20;4.93;;;13.20;99.90;;;13.50;62.89;101262.78;5053281;28;20521;-67
2021/11/21 09:40:12;;;;;;;12.13;4.45;;;13.20;99.90;;;13.84;62.78;101260.59;5053380;28;20124;-67
2021/11/21 09:42:41;;;;;;;13.23;4.70;;;13.60;99.90;;;14.40;62.43;101263.47;5069048;28;20040;-66
2021/11/21 09:45:13;;;;;;;14.00;4.53;;;14.20;99.90;;;14.80;61.42;101255.81;5053213;28;20041;-69
2021/11/21 09:47:42;;;;;;;13.75;4.53;;;14.70;99.90;;;15.31;60.54;101278.91;5068672;28;20057;-61
2021/11/21 09:50:13;;;;;;;13.82;4.40;;;15.10;99.90;;;15.65;58.62;101267.69;5051806;28;20091;-62
2021/11/21 09:52:42;;;;;;;15.27;4.03;;;15.50;99.90;;;15.60;56.49;101278.44;5053016;28;20446;-63
2021/11/21 09:55:12;;;;;;;10.45;3.67;;;15.60;99.90;;;15.63;57.13;101249.06;5052851;28;20080;-61
2021/11/21 09:57:47;;;;;;;11.73;4.20;;;15.60;99.90;;;15.65;55.29;101276.56;5053376;28;20055;-62
2021/11/21 10:00:17;;;;;;;5.55;3.70;;;15.60;99.90;;;15.97;56.17;101276.81;5052794;28;20052;-62
2021/11/21 10:02:48;;;;;;;12.85;4.22;;;15.80;99.90;;;16.16;54.83;101269.34;5053462;28;20044;-62
2021/11/21 10:05:25;;;;;;;10.13;4.07;;;16.00;99.90;;;16.34;54.13;101279.59;5052746;28;20045;-62
2021/11/21 10:08:05;;;;;;;13.10;4.10;;;16.20;99.90;;;16.45;53.38;101266.94;5052794;28;20048;-62
2021/11/21 10:10:45;;;;;;;13.52;4.32;;;16.40;99.90;;;16.62;54.02;101277.25;5052878;28;20483;-62
2021/11/21 10:13:35;;;;;;;11.18;3.80;;;16.50;99.90;;;16.69;54.18;101271.72;5052467;28;20103;-62
2021/11/21 10:16:21;;;;;;;9.40;3.83;;;16.60;99.90;;;17.05;53.69;101270.00;5052106;28;20045;-63
2021/11/21 10:18:54;;;;;;;7.90;3.40;;;17.00;99.90;;;16.71;53.03;101143.47;5052850;28;20295;-63